Quincy, CA (95971)

6:18 PM PST on January 24, 2017 (GMT -0800)
Quincy | | Change Station

Elev 3422 ft 39.95 °N, 120.96 °W | Updated 28 seconds ago

Clear
Clear
28.8 °F
Feels Like 29 °F
N
1.1
Wind Variable Wind from NE

Today
High -- | Low -- °F
--% Chance of Precip.
Yesterday
High -- | Low -- °F
Precip. -- in
Pressure 30.08 in
Visibility 10.0 miles
Clouds Clear
Windchill 29 °F
Dew Point 26 °F
Humidity 91%
Rainfall 0.04 in
Snow Depth Not available.
7:18 AM 5:14 PM
Waning Crescent, 8% visible
METAR KGOO 250155Z AUTO 32005KT 10SM CLR 02/00 A3008 RMK AO1
Pressure 30.08 in
Visibility 10.0 miles
Clouds Clear
Windchill 29 °F
Dew Point 26 °F
Humidity 91%
Rainfall 0.04 in
Snow Depth Not available.
7:18 AM 5:14 PM
Waning Crescent, 8% visible
METAR KGOO 250155Z AUTO 32005KT 10SM CLR 02/00 A3008 RMK AO1

Get Your Daily Forecast Email!

Thanks for signing up!

Be on the lookout for a verification email in your inbox.

You'll start receiving the daily forecast at 8 AM.

×

10-Day Weather Forecast

Almanac

Astronomy

Jan. 24, 2017 Rise Set
Actual Time
Civil Twilight
Nautical Twilight
Astronomical Twilight
Moon
Length of Visible Light
Length of Day
Tomorrow will be .
, % of the Moon is Illuminated

Today's Extremes

State Highs State Lows

Community

WunderPhotos

Upload Photos

1,962,540 photos uploaded!

WunderBlog® & News

Nearby

Air Quality

  Air Quality AQ Index Pollutant
Not available.

Snow Depth

Station Depth Elevation

Earthquake Activity

City Distance Mag. Time & Date
Minimum magnitude displayed is 2.5.

Coastal Water Temperatures

Place Temperature

Stations

Nearby Weather Stations

Station Location Temp. Windchill Dew Point Humidity Wind Precip. Elev Updated Type
                   

Watches & Warnings

There are currently no watches in effect.